Time;durP1;ratioP1;P1;durP2;ratioP2;P2;SDS_P1;SDS_P2;PMS_P1;PMS_P2;Temp;Humidity;BMP_temperature;BMP_pressure;BME280_temperature;BME280_humidity;BME280_pressure;Samples;Min_cycle;Max_cycle;Signal;HPM_P1;HPM_P2
2022/06/09 00:01:25;;;;;;;11.15;2.13;;;20.40;54.60;;;;;;7367089;19;21905;-77
2022/06/09 00:04:03;;;;;;;15.38;2.60;;;20.40;54.60;;;;;;7365483;19;20011;-77
2022/06/09 00:06:43;;;;;;;14.57;2.65;;;20.30;54.50;;;;;;7388448;19;20018;-77
2022/06/09 00:09:14;;;;;;;14.95;2.28;;;20.20;54.50;;;;;;7369237;19;20014;-77
2022/06/09 00:11:51;;;;;;;11.05;1.88;;;20.20;54.90;;;;;;7369826;19;20466;-77
2022/06/09 00:14:28;;;;;;;11.40;1.88;;;20.20;55.00;;;;;;7368016;19;20019;-77
2022/06/09 00:17:00;;;;;;;13.02;2.17;;;20.20;55.30;;;;;;7367423;19;20014;-76
2022/06/09 00:19:35;;;;;;;10.52;2.03;;;20.00;55.00;;;;;;7366788;19;20025;-77
2022/06/09 00:22:10;;;;;;;14.43;2.60;;;19.90;55.90;;;;;;7367870;19;20078;-76
2022/06/09 00:24:42;;;;;;;16.17;2.92;;;19.90;55.70;;;;;;7390822;19;20015;-78
2022/06/09 00:27:18;;;;;;;16.95;2.58;;;19.80;55.50;;;;;;7369776;19;20018;-77
2022/06/09 00:29:49;;;;;;;10.95;2.22;;;19.80;55.70;;;;;;7366290;19;20086;-77
2022/06/09 00:32:21;;;;;;;20.58;2.65;;;19.80;55.70;;;;;;7368763;19;20463;-77
2022/06/09 00:34:54;;;;;;;19.70;2.80;;;19.70;55.50;;;;;;7368051;19;20021;-77
2022/06/09 00:37:25;;;;;;;18.73;2.60;;;19.60;55.90;;;;;;7368597;19;20022;-77
2022/06/09 00:39:59;;;;;;;15.15;2.80;;;19.50;56.00;;;;;;7369630;19;20014;-78
2022/06/09 00:42:37;;;;;;;13.82;2.45;;;19.40;56.30;;;;;;7388919;19;20449;-78
2022/06/09 00:45:31;;;;;;;16.15;3.08;;;19.40;56.40;;;;;;7368895;19;20709;-78
2022/06/09 00:48:19;;;;;;;13.73;2.55;;;19.50;56.30;;;;;;7367479;19;20021;-78
2022/06/09 00:50:50;;;;;;;22.25;3.00;;;19.40;56.40;;;;;;7368096;19;20017;-78
2022/06/09 00:53:25;;;;;;;17.77;3.10;;;19.30;56.90;;;;;;7368003;19;20010;-78
2022/06/09 00:55:57;;;;;;;15.23;2.63;;;19.20;56.90;;;;;;7365389;19;20042;-78
2022/06/09 00:58:36;;;;;;;21.02;2.83;;;19.30;56.90;;;;;;7367000;19;20035;-78
2022/06/09 01:01:11;;;;;;;17.60;2.45;;;19.30;56.80;;;;;;7367279;19;20018;-78
2022/06/09 01:03:50;;;;;;;18.55;2.95;;;19.30;57.00;;;;;;7388443;19;20019;-78
2022/06/09 01:06:28;;;;;;;23.85;3.03;;;19.30;57.10;;;;;;7368504;19;20018;-78
2022/06/09 01:09:05;;;;;;;19.63;2.50;;;19.30;57.20;;;;;;7363197;19;20014;-78
2022/06/09 01:11:38;;;;;;;16.40;2.67;;;19.30;57.00;;;;;;7366309;19;20042;-78
2022/06/09 01:14:16;;;;;;;20.50;2.78;;;19.40;57.10;;;;;;7363157;19;20018;-78
2022/06/09 01:17:02;;;;;;;29.33;3.10;;;19.30;57.10;;;;;;7365718;19;20033;-78
2022/06/09 01:19:52;;;;;;;25.00;2.88;;;19.40;57.30;;;;;;7368247;19;20019;-78
2022/06/09 01:22:44;;;;;;;22.77;2.58;;;19.30;57.30;;;;;;7365777;19;20018;-78
2022/06/09 01:25:46;;;;;;;23.40;3.22;;;19.20;57.90;;;;;;7367349;19;20034;-78
2022/06/09 01:28:44;;;;;;;20.55;2.60;;;19.20;57.40;;;;;;7366605;19;20067;-78
2022/06/09 01:31:35;;;;;;;17.75;3.50;;;19.30;57.40;;;;;;7364606;19;20016;-78
2022/06/09 01:34:11;;;;;;;;;;;19.30;57.40;;;;;;7361628;19;20350;-78
2022/06/09 01:36:52;;;;;;;20.45;2.60;;;19.30;57.40;;;;;;7382039;19;19927;-78
2022/06/09 01:39:32;;;;;;;17.85;3.17;;;19.30;57.30;;;;;;7364690;19;20550;-78
2022/06/09 01:42:09;;;;;;;20.13;2.80;;;19.30;57.30;;;;;;7365194;19;20223;-78
2022/06/09 01:44:39;;;;;;;18.63;3.22;;;19.30;57.50;;;;;;7356137;19;20035;-78
2022/06/09 01:47:16;;;;;;;13.83;2.20;;;19.30;57.30;;;;;;7362831;19;20086;-78
2022/06/09 01:49:51;;;;;;;20.02;2.40;;;19.40;57.50;;;;;;7342853;19;20478;-78
2022/06/09 01:52:26;;;;;;;18.88;2.70;;;19.40;57.40;;;;;;7357307;19;20340;-79
2022/06/09 01:55:02;;;;;;;16.85;2.70;;;19.40;57.30;;;;;;7361023;19;20018;-78
2022/06/09 01:57:39;;;;;;;17.80;2.95;;;19.40;57.30;;;;;;7388024;19;20039;-78
2022/06/09 02:00:13;;;;;;;14.32;2.40;;;19.40;57.30;;;;;;7362012;19;20159;-78
2022/06/09 02:02:55;;;;;;;29.70;3.40;;;19.40;57.20;;;;;;7360965;19;20022;-78
2022/06/09 02:05:29;;;;;;;15.40;2.83;;;19.40;57.30;;;;;;7362558;19;20022;-78
2022/06/09 02:08:09;;;;;;;16.17;2.40;;;19.30;57.20;;;;;;7362913;19;20441;-78
2022/06/09 02:10:43;;;;;;;18.85;2.90;;;19.30;57.30;;;;;;7365024;19;20024;-78
2022/06/09 02:13:22;;;;;;;15.13;2.67;;;19.20;57.40;;;;;;7364488;19;20365;-78
2022/06/09 02:15:59;;;;;;;17.30;2.80;;;19.10;57.80;;;;;;7371674;19;20046;-79
2022/06/09 02:18:35;;;;;;;23.00;2.90;;;18.90;58.00;;;;;;7385938;19;20018;-78
2022/06/09 02:21:11;;;;;;;20.30;2.92;;;18.90;58.20;;;;;;7369202;19;20006;-78
2022/06/09 02:23:44;;;;;;;20.95;2.63;;;19.00;58.20;;;;;;7371907;19;20085;-78
2022/06/09 02:26:14;;;;;;;25.30;3.00;;;19.00;58.40;;;;;;7373452;19;20457;-78
2022/06/09 02:28:47;;;;;;;20.33;3.07;;;19.00;58.20;;;;;;7371613;19;20018;-78
2022/06/09 02:31:22;;;;;;;23.85;3.53;;;18.90;58.20;;;;;;7371460;19;20013;-78
2022/06/09 02:33:59;;;;;;;22.48;3.35;;;19.00;58.20;;;;;;7375266;19;20018;-77
2022/06/09 02:36:31;;;;;;;21.48;3.10;;;19.00;58.20;;;;;;7393777;19;20132;-77
2022/06/09 02:39:04;;;;;;;19.98;3.47;;;19.00;58.20;;;;;;7372969;19;20096;-76
2022/06/09 02:41:36;;;;;;;13.90;2.45;;;19.00;58.40;;;;;;7369135;19;20022;-77
2022/06/09 02:44:09;;;;;;;23.75;3.00;;;19.00;58.30;;;;;;7370714;19;20015;-77
2022/06/09 02:46:40;;;;;;;18.88;3.13;;;19.00;58.10;;;;;;7365415;19;20022;-77
2022/06/09 02:49:15;;;;;;;19.55;2.90;;;19.00;58.00;;;;;;7370709;19;20451;-77
2022/06/09 02:51:48;;;;;;;22.10;3.25;;;19.00;58.00;;;;;;7394704;19;20017;-77
2022/06/09 02:54:23;;;;;;;12.85;2.30;;;19.00;58.00;;;;;;7373308;19;20039;-77
2022/06/09 02:56:55;;;;;;;17.77;2.88;;;19.00;57.90;;;;;;7369581;19;20017;-77
2022/06/09 02:59:32;;;;;;;17.92;2.58;;;19.00;57.90;;;;;;7369519;19;20015;-77
2022/06/09 03:02:07;;;;;;;15.70;3.03;;;19.00;57.80;;;;;;7373304;19;20018;-77
2022/06/09 03:04:45;;;;;;;13.40;2.75;;;19.00;57.90;;;;;;7372140;19;20009;-77
2022/06/09 03:07:18;;;;;;;15.48;2.70;;;19.00;57.90;;;;;;7373515;19;20078;-78
2022/06/09 03:09:56;;;;;;;18.98;2.53;;;19.00;57.80;;;;;;7392038;19;20030;-78
2022/06/09 03:12:32;;;;;;;19.30;2.67;;;19.00;57.80;;;;;;7372512;19;20036;-78
2022/06/09 03:15:08;;;;;;;17.15;2.97;;;18.90;58.50;;;;;;7362180;19;20057;-78
2022/06/09 03:17:41;;;;;;;13.02;2.28;;;18.80;58.30;;;;;;7371819;19;20011;-78
2022/06/09 03:20:20;;;;;;;14.57;2.40;;;18.80;58.20;;;;;;7371916;19;20751;-78
2022/06/09 03:22:52;;;;;;;15.45;2.33;;;18.80;58.50;;;;;;7370473;19;20043;-76
2022/06/09 03:25:26;;;;;;;14.68;2.63;;;18.90;58.10;;;;;;7370358;19;20470;-77
2022/06/09 03:28:00;;;;;;;8.25;1.85;;;18.90;58.00;;;;;;7368888;19;20095;-77
2022/06/09 03:30:34;;;;;;;14.20;2.55;;;18.90;57.90;;;;;;7392110;19;20018;-77
2022/06/09 03:33:11;;;;;;;13.70;3.08;;;18.90;58.00;;;;;;7370879;19;20115;-77
2022/06/09 03:36:07;;;;;;;15.57;2.25;;;18.90;58.10;;;;;;7360284;19;20011;-77
2022/06/09 03:38:45;;;;;;;21.33;3.17;;;18.90;58.10;;;;;;7364272;19;20032;-77
2022/06/09 03:41:20;;;;;;;16.13;3.83;;;18.90;57.90;;;;;;7370335;19;20017;-76
2022/06/09 03:43:56;;;;;;;11.90;2.40;;;18.90;57.90;;;;;;7370734;19;20011;-77
2022/06/09 03:46:30;;;;;;;17.10;2.42;;;18.90;57.80;;;;;;7360652;19;20456;-77
2022/06/09 03:49:02;;;;;;;12.30;2.10;;;18.90;57.60;;;;;;7368698;19;20025;-77
2022/06/09 03:51:38;;;;;;;;;;;18.90;57.70;;;;;;7391614;19;20082;-77
2022/06/09 03:54:10;;;;;;;12.13;2.38;;;18.90;57.70;;;;;;7362982;19;19918;-77
2022/06/09 03:56:42;;;;;;;16.15;2.58;;;18.80;57.70;;;;;;7362706;19;20441;-77
2022/06/09 03:59:16;;;;;;;17.30;2.63;;;18.80;57.90;;;;;;7368237;19;20466;-77
2022/06/09 04:01:52;;;;;;;15.68;2.72;;;18.80;58.00;;;;;;7367762;19;20037;-77
2022/06/09 04:04:27;;;;;;;18.27;3.58;;;18.80;58.20;;;;;;7371116;19;20724;-77
2022/06/09 04:07:07;;;;;;;21.15;3.30;;;18.80;58.40;;;;;;7367702;19;20007;-77
2022/06/09 04:09:57;;;;;;;20.90;3.57;;;18.70;58.50;;;;;;7390590;19;20318;-77
2022/06/09 04:12:34;;;;;;;23.52;3.03;;;18.70;58.60;;;;;;7369672;19;20288;-77
2022/06/09 04:15:10;;;;;;;16.55;3.40;;;18.70;58.70;;;;;;7368020;19;20066;-77
2022/06/09 04:17:43;;;;;;;20.10;3.28;;;18.60;59.00;;;;;;7367690;19;20018;-77
2022/06/09 04:20:19;;;;;;;31.63;3.65;;;18.50;59.20;;;;;;7370023;19;20022;-77
2022/06/09 04:22:58;;;;;;;18.40;2.60;;;18.50;59.40;;;;;;7369392;19;20054;-77
2022/06/09 04:25:32;;;;;;;29.70;3.90;;;18.50;59.40;;;;;;7368044;19;20153;-77
2022/06/09 04:28:06;;;;;;;22.00;3.78;;;18.60;59.30;;;;;;7366498;19;20015;-77
2022/06/09 04:30:52;;;;;;;14.10;3.35;;;18.50;59.40;;;;;;7389012;19;20048;-77
2022/06/09 04:33:33;;;;;;;22.35;3.60;;;18.50;59.50;;;;;;7368837;19;20020;-77
2022/06/09 04:36:05;;;;;;;26.25;3.50;;;18.50;59.70;;;;;;7352559;19;20015;-77
2022/06/09 04:38:46;;;;;;;20.45;3.05;;;18.50;59.90;;;;;;7368512;19;20326;-77
2022/06/09 04:41:22;;;;;;;25.20;3.23;;;18.50;59.90;;;;;;7365429;19;20032;-77
2022/06/09 04:43:57;;;;;;;15.18;2.90;;;18.50;60.10;;;;;;7366072;19;20247;-77
2022/06/09 04:46:29;;;;;;;20.35;3.45;;;18.50;60.40;;;;;;7368250;19;20042;-78
2022/06/09 04:49:05;;;;;;;19.52;2.80;;;18.30;60.80;;;;;;7362173;19;20672;-78
2022/06/09 04:51:39;;;;;;;23.77;3.75;;;18.40;60.80;;;;;;7389973;19;20026;-77
2022/06/09 04:54:21;;;;;;;23.90;3.53;;;18.50;60.60;;;;;;7368115;19;20025;-77
2022/06/09 04:57:09;;;;;;;19.88;3.35;;;18.50;60.70;;;;;;7367689;19;20453;-77
2022/06/09 04:59:44;;;;;;;23.63;3.53;;;18.50;60.60;;;;;;7363688;19;20422;-77
2022/06/09 05:02:17;;;;;;;21.63;3.90;;;18.50;61.00;;;;;;7364689;19;20010;-77
2022/06/09 05:04:51;;;;;;;22.00;3.58;;;18.50;60.80;;;;;;7367427;19;20014;-77
2022/06/09 05:07:26;;;;;;;20.98;3.15;;;18.40;61.10;;;;;;7367491;19;20022;-77
2022/06/09 05:10:13;;;;;;;16.60;4.00;;;18.40;61.30;;;;;;7358207;19;20014;-77
2022/06/09 05:12:46;;;;;;;23.17;3.92;;;18.20;61.50;;;;;;7388617;19;20022;-77
2022/06/09 05:15:21;;;;;;;25.50;3.50;;;18.20;62.20;;;;;;7368082;19;20039;-76
2022/06/09 05:17:57;;;;;;;15.50;2.83;;;18.10;62.10;;;;;;7366694;19;20018;-77
2022/06/09 05:20:32;;;;;;;27.00;4.10;;;18.10;62.50;;;;;;7354858;19;20018;-77
2022/06/09 05:23:05;;;;;;;29.17;3.63;;;18.10;62.60;;;;;;7366477;19;20039;-77
2022/06/09 05:26:01;;;;;;;28.35;3.85;;;18.20;62.70;;;;;;7366441;19;20010;-77
2022/06/09 05:28:36;;;;;;;24.38;3.30;;;18.20;62.80;;;;;;7364546;19;20029;-77
2022/06/09 05:31:08;;;;;;;29.52;3.30;;;17.90;63.40;;;;;;7365727;19;20023;-77
2022/06/09 05:33:41;;;;;;;26.02;3.28;;;18.00;63.40;;;;;;7389429;19;20022;-77
2022/06/09 05:36:15;;;;;;;22.17;3.00;;;17.90;62.90;;;;;;7364102;19;20583;-77
2022/06/09 05:47:27;;;;;;;24.75;3.72;;;18.20;62.80;;;;;;7369127;19;20120;-76
2022/06/09 05:49:59;;;;;;;24.17;3.70;;;18.20;62.60;;;;;;7366389;19;20015;-76
2022/06/09 05:52:36;;;;;;;26.20;3.50;;;18.20;62.90;;;;;;7364305;19;20091;-76
2022/06/09 05:55:11;;;;;;;29.35;3.92;;;18.40;62.50;;;;;;7371682;19;20011;-76
2022/06/09 05:57:46;;;;;;;21.38;3.42;;;18.10;62.60;;;;;;7394021;19;20021;-77
2022/06/09 06:00:20;;;;;;;27.45;3.78;;;18.30;62.50;;;;;;7376678;19;20047;-76
2022/06/09 06:02:53;;;;;;;20.70;3.47;;;18.20;62.20;;;;;;7369217;19;20105;-77
2022/06/09 06:08:18;;;;;;;31.38;4.35;;;17.90;62.70;;;;;;7375297;19;20035;-76
2022/06/09 06:10:56;;;;;;;24.35;3.25;;;18.10;62.90;;;;;;7372337;19;20029;-77
2022/06/09 06:13:35;;;;;;;25.33;3.28;;;18.10;62.50;;;;;;7362758;19;20402;-76
2022/06/09 06:16:22;;;;;;;18.95;2.90;;;18.00;63.60;;;;;;7371506;19;20022;-77
2022/06/09 06:19:06;;;;;;;22.65;3.88;;;18.30;62.70;;;;;;7383501;19;20011;-77
2022/06/09 06:21:48;;;;;;;27.25;3.88;;;18.10;63.00;;;;;;7394928;19;20027;-77
2022/06/09 06:24:20;;;;;;;22.30;3.28;;;18.30;62.70;;;;;;7376946;19;20022;-77
2022/06/09 06:26:53;;;;;;;18.00;2.92;;;18.50;62.50;;;;;;7375267;19;20448;-76
2022/06/09 06:29:30;;;;;;;22.70;3.13;;;18.50;62.30;;;;;;7374445;19;20391;-77
2022/06/09 06:32:02;;;;;;;19.98;3.13;;;18.70;61.90;;;;;;7367050;19;20017;-76
2022/06/09 06:34:36;;;;;;;17.88;3.50;;;18.90;61.70;;;;;;7373968;19;20395;-76
2022/06/09 06:37:08;;;;;;;24.92;3.33;;;19.10;60.80;;;;;;7373528;19;20446;-77
2022/06/09 06:39:43;;;;;;;22.50;3.45;;;19.10;60.50;;;;;;7394862;19;20015;-77
2022/06/09 06:42:18;;;;;;;19.15;3.05;;;18.90;59.70;;;;;;7373097;19;20575;-81
2022/06/09 06:44:53;;;;;;;22.48;3.22;;;19.10;60.00;;;;;;7368560;19;20015;-78
2022/06/09 06:47:49;;;;;;;25.92;3.38;;;18.80;59.90;;;;;;7376283;19;20037;-79
2022/06/09 06:50:38;;;;;;;17.13;3.13;;;18.70;60.10;;;;;;7375313;19;20437;-78
2022/06/09 06:53:17;;;;;;;25.70;3.28;;;18.60;60.20;;;;;;7373079;19;20010;-77
2022/06/09 06:56:03;;;;;;;26.35;3.00;;;18.60;59.90;;;;;;7367584;19;20015;-79
2022/06/09 06:58:42;;;;;;;28.40;8.40;;;18.80;59.90;;;;;;7372980;19;20014;-76
2022/06/09 07:01:16;;;;;;;21.08;4.50;;;18.70;60.20;;;;;;7369939;19;20069;-76
2022/06/09 07:03:51;;;;;;;21.13;3.03;;;18.80;60.50;;;;;;7393262;19;20030;-76
2022/06/09 07:06:24;;;;;;;22.63;2.75;;;18.70;60.00;;;;;;7367854;19;20018;-77
2022/06/09 07:09:00;;;;;;;17.83;3.92;;;18.80;60.20;;;;;;7362644;19;20018;-77
2022/06/09 07:11:41;;;;;;;15.95;2.90;;;18.90;59.70;;;;;;7370508;19;20086;-76
2022/06/09 07:14:13;;;;;;;18.23;2.88;;;19.00;59.50;;;;;;7366388;19;20010;-76
2022/06/09 07:16:48;;;;;;;22.55;3.55;;;19.20;59.20;;;;;;7367334;19;20406;-76
2022/06/09 07:19:21;;;;;;;24.25;3.45;;;19.00;59.30;;;;;;7368632;19;20015;-76
2022/06/09 07:21:57;;;;;;;20.10;3.30;;;19.00;58.90;;;;;;7377666;19;20018;-77
2022/06/09 07:24:34;;;;;;;14.85;2.92;;;18.90;59.30;;;;;;7386914;19;20083;-76
2022/06/09 07:27:07;;;;;;;16.23;2.92;;;18.60;59.50;;;;;;7371059;19;20014;-76
2022/06/09 07:29:38;;;;;;;19.98;2.67;;;18.50;60.20;;;;;;7367563;19;20018;-76
2022/06/09 07:32:15;;;;;;;14.38;3.03;;;18.70;60.30;;;;;;7367963;19;20357;-77
2022/06/09 07:34:46;;;;;;;23.73;4.00;;;18.70;59.60;;;;;;7370862;19;20086;-76
2022/06/09 07:37:16;;;;;;;;;;;18.90;59.50;;;;;;7364196;19;20014;-75
2022/06/09 07:39:55;;;;;;;13.75;2.75;;;18.90;59.30;;;;;;7389455;19;19930;-75
2022/06/09 07:42:26;;;;;;;25.75;3.40;;;19.00;59.40;;;;;;7367914;19;20030;-75
2022/06/09 07:44:57;;;;;;;19.30;2.70;;;19.10;59.60;;;;;;7367923;19;20014;-75
2022/06/09 07:47:32;;;;;;;27.52;3.40;;;19.20;59.10;;;;;;7367610;19;20018;-76
2022/06/09 07:50:02;;;;;;;24.10;3.47;;;19.50;58.90;;;;;;7366999;19;20403;-75
2022/06/09 07:52:35;;;;;;;19.05;2.60;;;19.70;58.40;;;;;;7370533;19;20456;-76
2022/06/09 07:55:09;;;;;;;26.55;3.30;;;19.60;58.30;;;;;;7367208;19;20017;-76
2022/06/09 07:57:43;;;;;;;18.25;2.85;;;19.60;57.50;;;;;;7389106;19;20037;-75
2022/06/09 08:00:21;;;;;;;19.73;2.40;;;19.50;57.70;;;;;;7369345;19;20015;-75
2022/06/09 08:02:57;;;;;;;20.10;3.00;;;19.40;57.30;;;;;;7362420;19;20022;-75
2022/06/09 08:05:30;;;;;;;16.77;2.70;;;19.20;57.00;;;;;;7367475;19;20018;-76
2022/06/09 08:08:01;;;;;;;19.52;2.90;;;19.30;57.10;;;;;;7367325;19;20022;-75
2022/06/09 08:10:33;;;;;;;22.25;2.88;;;19.50;56.90;;;;;;7368398;19;20021;-75
2022/06/09 08:13:05;;;;;;;23.27;2.92;;;19.70;56.90;;;;;;7366924;19;20023;-76
2022/06/09 08:15:37;;;;;;;15.85;2.70;;;19.70;57.30;;;;;;7389621;19;20041;-76
2022/06/09 08:18:10;;;;;;;15.75;2.35;;;19.90;56.90;;;;;;7364227;19;20077;-76
2022/06/09 08:20:44;;;;;;;16.75;2.33;;;19.80;55.80;;;;;;7364142;19;20022;-76
2022/06/09 08:23:17;;;;;;;17.75;2.67;;;19.90;55.60;;;;;;7365226;19;20015;-76
2022/06/09 08:25:51;;;;;;;16.95;2.60;;;19.80;55.70;;;;;;7362775;19;20027;-76
2022/06/09 08:28:27;;;;;;;18.40;2.38;;;19.80;55.70;;;;;;7365710;19;20022;-76
2022/06/09 08:31:03;;;;;;;16.88;2.83;;;19.80;55.60;;;;;;7362358;19;20014;-76
2022/06/09 08:33:39;;;;;;;15.68;2.30;;;20.00;55.90;;;;;;7389108;19;20029;-76
2022/06/09 08:36:13;;;;;;;17.05;2.53;;;19.90;54.60;;;;;;7368093;19;20736;-76
2022/06/09 08:38:49;;;;;;;15.00;3.05;;;19.90;55.10;;;;;;7368166;19;20083;-76
2022/06/09 08:41:38;;;;;;;18.30;2.75;;;19.90;55.20;;;;;;7367279;19;20018;-76
2022/06/09 08:44:18;;;;;;;20.75;2.75;;;19.90;55.70;;;;;;7368706;19;20038;-75
2022/06/09 08:46:59;;;;;;;9.70;2.70;;;19.80;56.00;;;;;;7367207;19;20413;-76
2022/06/09 08:49:42;;;;;;;14.73;2.40;;;19.80;56.60;;;;;;7364429;19;20014;-76
2022/06/09 08:52:25;;;;;;;15.27;2.20;;;19.90;56.10;;;;;;7363178;19;20019;-75
2022/06/09 08:55:01;;;;;;;11.80;2.13;;;20.00;55.00;;;;;;7367861;19;20098;-76
2022/06/09 08:57:37;;;;;;;15.50;2.35;;;19.90;55.40;;;;;;7387511;19;20018;-74
2022/06/09 09:00:09;;;;;;;19.52;2.45;;;20.20;55.90;;;;;;7365707;19;20039;-75
2022/06/09 09:02:44;;;;;;;12.45;2.13;;;20.40;54.50;;;;;;7366268;19;20382;-75
2022/06/09 09:05:26;;;;;;;11.85;2.50;;;20.50;54.30;;;;;;7367724;19;20047;-75
2022/06/09 09:08:03;;;;;;;12.57;2.30;;;20.50;54.30;;;;;;7367186;19;20019;-75
2022/06/09 09:10:44;;;;;;;18.05;2.60;;;20.50;53.80;;;;;;7366115;19;20038;-76
2022/06/09 09:13:42;;;;;;;17.13;2.25;;;20.50;52.90;;;;;;7363336;19;20019;-75
2022/06/09 09:16:19;;;;;;;16.10;2.33;;;20.50;52.70;;;;;;7367749;19;20313;-75
2022/06/09 09:18:56;;;;;;;11.30;1.90;;;20.40;53.20;;;;;;7388891;19;20057;-75
2022/06/09 09:21:50;;;;;;;18.27;2.45;;;20.70;53.50;;;;;;7369001;19;20011;-75
2022/06/09 09:24:29;;;;;;;17.58;2.70;;;20.60;52.70;;;;;;7368591;19;20014;-75
2022/06/09 09:27:22;;;;;;;13.88;2.17;;;20.70;52.70;;;;;;7366128;19;20719;-75
2022/06/09 09:30:00;;;;;;;11.60;2.25;;;20.90;52.60;;;;;;7366833;19;20023;-75
2022/06/09 09:32:40;;;;;;;9.38;2.45;;;21.00;52.60;;;;;;7367943;19;20011;-75
2022/06/09 09:35:15;;;;;;;11.23;2.08;;;21.00;51.90;;;;;;7366187;19;20018;-75
2022/06/09 09:37:51;;;;;;;15.50;2.30;;;20.80;51.90;;;;;;7367926;19;20015;-75
2022/06/09 09:40:28;;;;;;;16.67;7.68;;;20.70;51.20;;;;;;7363838;19;20015;-76
2022/06/09 09:43:03;;;;;;;17.92;3.33;;;20.70;52.40;;;;;;7363119;19;20010;-77
2022/06/09 09:45:45;;;;;;;15.05;2.30;;;20.90;53.00;;;;;;7389287;19;20390;-76
2022/06/09 09:48:35;;;;;;;14.05;2.50;;;21.20;52.10;;;;;;7364865;19;20023;-76
2022/06/09 09:51:12;;;;;;;12.25;2.47;;;21.00;50.10;;;;;;7363796;19;20007;-76
2022/06/09 09:53:56;;;;;;;17.83;2.63;;;20.80;51.10;;;;;;7364699;19;20014;-76
2022/06/09 09:56:39;;;;;;;11.90;1.95;;;21.10;51.30;;;;;;7364816;19;20078;-76
2022/06/09 09:59:27;;;;;;;13.10;2.00;;;21.20;50.60;;;;;;7365871;19;20734;-76
2022/06/09 10:10:30;;;;;;;9.35;1.80;;;21.50;49.40;;;;;;7364138;19;20039;-76
2022/06/09 10:13:02;;;;;;;11.27;1.95;;;21.40;49.50;;;;;;7362699;19;20019;-76
2022/06/09 10:15:36;;;;;;;8.27;1.75;;;21.50;49.00;;;;;;7385434;19;20026;-76
2022/06/09 10:18:16;;;;;;;12.35;1.83;;;21.60;49.40;;;;;;7364318;19;20601;-77
2022/06/09 10:21:05;;;;;;;12.07;1.77;;;21.70;49.50;;;;;;7364913;19;20122;-76
2022/06/09 10:23:48;;;;;;;10.20;1.95;;;21.50;49.70;;;;;;7364419;19;20019;-76
2022/06/09 10:26:26;;;;;;;10.82;1.85;;;21.60;49.50;;;;;;7362147;19;20076;-76
2022/06/09 10:29:06;;;;;;;11.57;2.10;;;21.60;50.00;;;;;;7363035;19;20025;-76
2022/06/09 10:31:49;;;;;;;9.93;1.88;;;21.80;49.90;;;;;;7362212;19;20047;-77
2022/06/09 10:34:39;;;;;;;12.20;2.10;;;21.60;48.90;;;;;;7359668;19;20569;-77
2022/06/09 10:37:25;;;;;;;8.10;1.73;;;21.60;50.10;;;;;;7358698;19;20017;-76
2022/06/09 10:40:07;;;;;;;6.78;1.60;;;21.60;49.30;;;;;;7363097;19;20035;-77
2022/06/09 10:42:50;;;;;;;11.40;1.85;;;21.70;49.10;;;;;;7387984;19;20054;-76
2022/06/09 10:45:30;;;;;;;7.82;1.58;;;21.40;47.90;;;;;;7373380;19;20026;-75
2022/06/09 10:56:48;;;;;;;11.77;1.60;;;21.50;47.30;;;;;;7374077;19;20030;-76
2022/06/09 10:59:32;;;;;;;7.50;1.38;;;21.60;48.40;;;;;;7372124;19;20015;-76
2022/06/09 11:02:07;;;;;;;8.57;1.83;;;21.80;48.60;;;;;;7368086;19;20018;-76
2022/06/09 11:04:42;;;;;;;10.50;1.60;;;22.00;48.30;;;;;;7369548;19;20117;-76
2022/06/09 11:07:50;;;;;;;8.30;1.88;;;22.20;47.00;;;;;;7365028;19;20008;-77
2022/06/09 11:10:33;;;;;;;11.52;1.80;;;22.10;46.30;;;;;;7370141;19;20022;-76
2022/06/09 11:13:38;;;;;;;10.90;1.60;;;22.20;46.70;;;;;;7362861;19;20018;-76
2022/06/09 11:16:20;;;;;;;11.57;1.90;;;22.40;46.10;;;;;;7369698;19;20037;-77
2022/06/09 11:19:06;;;;;;;8.32;1.77;;;22.40;46.30;;;;;;7391767;19;20021;-76
2022/06/09 11:21:51;;;;;;;7.47;1.52;;;22.30;46.20;;;;;;7371542;19;20418;-76
2022/06/09 11:24:34;;;;;;;10.45;1.88;;;22.20;47.00;;;;;;7371404;19;20010;-76
2022/06/09 11:27:19;;;;;;;8.88;1.48;;;22.30;44.60;;;;;;7371499;19;20014;-76
2022/06/09 11:30:04;;;;;;;5.60;1.52;;;22.40;45.40;;;;;;7371557;19;20050;-75
2022/06/09 11:32:47;;;;;;;7.93;1.67;;;22.50;46.00;;;;;;7370293;19;20011;-75
2022/06/09 11:35:46;;;;;;;8.48;1.73;;;22.50;45.60;;;;;;7370430;19;20028;-75
2022/06/09 11:38:42;;;;;;;7.05;1.63;;;22.60;45.80;;;;;;7369967;19;20021;-76
2022/06/09 11:41:27;;;;;;;12.23;2.55;;;22.50;45.80;;;;;;7365293;19;20723;-75
2022/06/09 11:44:17;;;;;;;11.50;2.28;;;22.40;46.30;;;;;;7353894;19;20018;-75
2022/06/09 11:46:51;;;;;;;10.23;1.77;;;22.50;46.20;;;;;;7368185;19;20019;-76
2022/06/09 11:49:33;;;;;;;7.85;1.45;;;22.50;46.60;;;;;;7368751;19;20022;-76
2022/06/09 11:52:07;;;;;;;5.70;1.35;;;22.70;45.70;;;;;;7369069;19;20041;-76
2022/06/09 11:54:46;;;;;;;7.05;1.45;;;22.70;44.40;;;;;;7391042;19;20022;-76
2022/06/09 11:57:28;;;;;;;6.50;1.30;;;22.80;44.50;;;;;;7365948;19;20018;-76
2022/06/09 12:00:07;;;;;;;8.60;1.33;;;22.80;43.10;;;;;;7369699;19;20445;-76
2022/06/09 12:03:06;;;;;;;6.25;1.42;;;22.80;43.60;;;;;;7370668;19;20718;-76
2022/06/09 12:05:54;;;;;;;8.20;1.65;;;22.90;43.40;;;;;;7366618;19;20014;-76
2022/06/09 12:08:45;;;;;;;10.02;1.40;;;23.00;44.00;;;;;;7366062;19;20018;-77
2022/06/09 12:11:20;;;;;;;10.13;1.30;;;23.10;43.90;;;;;;7367221;19;20047;-76
2022/06/09 12:14:20;;;;;;;97.07;57.33;;;23.10;43.30;;;;;;7365743;19;20022;-76
2022/06/09 12:17:11;;;;;;;8.70;1.83;;;23.00;42.00;;;;;;7370846;19;20029;-78
2022/06/09 12:19:59;;;;;;;7.07;1.35;;;23.00;42.70;;;;;;7367805;19;20019;-77
2022/06/09 12:22:54;;;;;;;9.02;1.67;;;22.80;42.20;;;;;;7358625;19;20075;-77
2022/06/09 12:25:40;;;;;;;6.18;1.60;;;22.80;43.20;;;;;;7354751;19;20175;-76
2022/06/09 12:28:41;;;;;;;7.97;1.33;;;22.90;43.60;;;;;;7366626;19;20042;-76
2022/06/09 12:31:20;;;;;;;9.63;1.40;;;23.00;44.30;;;;;;7363358;19;20036;-77
2022/06/09 12:34:00;;;;;;;8.77;1.40;;;23.10;42.80;;;;;;7389634;19;20274;-77
2022/06/09 12:36:44;;;;;;;7.90;1.58;;;22.70;42.00;;;;;;7368722;19;20021;-75
2022/06/09 12:39:25;;;;;;;7.82;1.27;;;22.50;43.70;;;;;;7366239;19;20014;-76
2022/06/09 12:41:58;;;;;;;5.63;1.33;;;22.80;43.10;;;;;;7365762;19;20015;-76
2022/06/09 12:44:36;;;;;;;6.40;1.30;;;22.80;42.20;;;;;;7365324;19;20062;-76
2022/06/09 12:47:21;;;;;;;6.72;1.27;;;22.90;42.00;;;;;;7361305;19;20039;-76
2022/06/09 12:50:04;;;;;;;9.38;1.30;;;23.00;41.30;;;;;;7363959;19;20055;-76
2022/06/09 12:52:40;;;;;;;7.82;1.33;;;23.00;41.50;;;;;;7367732;19;20050;-77
2022/06/09 12:55:26;;;;;;;8.38;1.40;;;23.10;41.70;;;;;;7361262;19;20014;-77
2022/06/09 12:58:11;;;;;;;8.88;1.38;;;23.20;42.10;;;;;;7363434;19;20015;-77
2022/06/09 13:00:53;;;;;;;5.55;1.55;;;23.20;42.20;;;;;;7389151;19;20355;-77
2022/06/09 13:03:30;;;;;;;9.13;1.37;;;23.30;41.80;;;;;;7366265;19;20078;-76
2022/06/09 13:06:12;;;;;;;4.38;0.80;;;23.10;40.70;;;;;;7367270;19;20490;-76
2022/06/09 13:08:49;;;;;;;9.27;1.35;;;23.30;40.20;;;;;;7364859;19;20018;-76
2022/06/09 13:14:12;;;;;;;6.20;1.35;;;23.30;40.10;;;;;;7367958;19;20030;-76
2022/06/09 13:16:49;;;;;;;8.47;1.03;;;23.20;40.70;;;;;;7365174;19;20018;-76
2022/06/09 13:19:30;;;;;;;4.85;1.40;;;23.40;40.60;;;;;;7355267;19;20042;-76
2022/06/09 13:22:09;;;;;;;9.60;1.27;;;23.40;41.00;;;;;;7365903;19;20086;-77
2022/06/09 13:24:45;;;;;;;6.28;1.40;;;23.40;41.60;;;;;;7388227;19;20049;-76
2022/06/09 13:27:30;;;;;;;7.75;1.35;;;23.70;41.10;;;;;;7363484;19;20029;-77
2022/06/09 13:30:12;;;;;;;5.53;1.35;;;23.80;40.70;;;;;;7361814;19;20010;-76
2022/06/09 13:32:47;;;;;;;5.88;1.33;;;23.80;40.50;;;;;;7367005;19;20021;-76
2022/06/09 13:35:42;;;;;;;5.97;1.30;;;23.80;41.60;;;;;;7364745;19;20259;-76
2022/06/09 13:38:31;;;;;;;7.55;1.40;;;24.00;41.40;;;;;;7361305;19;20034;-76
2022/06/09 13:41:06;;;;;;;5.72;1.38;;;24.10;40.70;;;;;;7365209;19;20090;-76
2022/06/09 13:43:48;;;;;;;6.88;1.17;;;23.80;39.50;;;;;;7366981;19;20118;-76
2022/06/09 13:46:27;;;;;;;8.05;1.40;;;23.90;40.30;;;;;;7367697;19;20130;-76
2022/06/09 13:49:04;;;;;;;5.97;1.15;;;23.80;40.40;;;;;;7365199;19;20019;-76
2022/06/09 13:52:03;;;;;;;169.07;105.22;;;23.80;40.20;;;;;;7387156;19;20018;-77
2022/06/09 13:54:35;;;;;;;9.13;2.17;;;23.90;40.60;;;;;;7367016;19;20065;-77
2022/06/09 13:57:11;;;;;;;7.72;1.30;;;24.00;39.30;;;;;;7361534;19;20043;-77
2022/06/09 13:59:47;;;;;;;5.95;1.30;;;23.90;39.40;;;;;;7363420;19;20018;-77
2022/06/09 14:02:23;;;;;;;4.63;1.30;;;24.10;40.00;;;;;;7367305;19;20017;-77
2022/06/09 14:04:59;;;;;;;4.30;1.10;;;24.30;39.60;;;;;;7367464;19;20017;-78
2022/06/09 14:07:32;;;;;;;6.20;1.20;;;24.20;39.60;;;;;;7363363;19;20018;-77
2022/06/09 14:10:05;;;;;;;5.40;1.40;;;24.10;39.70;;;;;;7363037;19;20018;-77